Hlavní strana
METAR-TAF:

METAR-TAF

Letiště :

Oberpfaffenhofen, Německo

zeměpisná šířka: 48-05N, zeměpisná délka: 011-17E, výška: 600 m

Aktuální stav počasí

Zpráva byla vytvořena před 41 minutami, v 14:20 UTC
Východní vítr 8 kt
Teplota 3°C
Vlhkost vzduchu 70%
Tlak 1022 hPa
Viditelnost 10 km a více
Žádná oblačnost pod 1500 m, nevyskytují se cumulonimby.

METAR: EDMO 181420Z 09008KT CAVOK 03/M02 Q1022

Čas: 16:01 (15:01 UTC)

Předpověď počasí

Zpráva byla vytvořena před 1 hodinou a 1 minutami, v 14:00 UTC
Předpověď platná od 18 v 15 UTC do 18 v 24 UTC
Východní vítr 6 kt
Viditelnost 10 km a více
Žádná oblačnost pod 1500 m, nevyskytují se cumulonimby.
Dočasný
od 18 v 18 UTC do 18 v 24 UTC
Viditelnost: 2000 m
chuchvalce mlhy

TAF: EDMO 181400Z 1815/1824 10006KT CAVOK TEMPO 1818/1824 2000 BCFG

Stav a předpovědi počasí z více než 4 000 letišť (zprávy METAR a TAF).

Červené a žluté tečky na mapě představují dostupné meteorologické stanice.

Když kurzor umístíte na tečku, zobrazí se název stanice.

Pak kliknutím zobrazíte stav a předpověď počasí.

Chcete-li změnit mapu, kliknutím na zelené tlačítko se znaménkem +mapu přiblížíte, kliknutím na zelené tlačítko se znaménkem – mapu oddálíte a kliknutím na zelené šipky přejdete na sousední mapy.


METAR-TAF: